sensor_id;sensor_type;location;lat;lon;timestamp;P1;durP1;ratioP1;P2;durP2;ratioP2
40971;SDS011;26701;47.408;19.174;2023-02-05T00:02:08;6.18;;;3.33;;
40971;SDS011;26701;47.408;19.174;2023-02-05T00:04:35;8.45;;;3.17;;
40971;SDS011;26701;47.408;19.174;2023-02-05T00:07:01;6.60;;;2.60;;
40971;SDS011;26701;47.408;19.174;2023-02-05T00:09:27;7.10;;;2.88;;
40971;SDS011;26701;47.408;19.174;2023-02-05T00:11:53;6.53;;;3.63;;
40971;SDS011;26701;47.408;19.174;2023-02-05T00:14:20;6.95;;;3.00;;
40971;SDS011;26701;47.408;19.174;2023-02-05T00:16:46;8.10;;;2.75;;
40971;SDS011;26701;47.408;19.174;2023-02-05T00:19:12;6.68;;;3.15;;
40971;SDS011;26701;47.408;19.174;2023-02-05T00:21:38;5.60;;;2.90;;
40971;SDS011;26701;47.408;19.174;2023-02-05T00:24:05;7.38;;;2.97;;
40971;SDS011;26701;47.408;19.174;2023-02-05T00:26:31;5.18;;;2.80;;
40971;SDS011;26701;47.408;19.174;2023-02-05T00:28:57;6.47;;;2.95;;
40971;SDS011;26701;47.408;19.174;2023-02-05T00:31:23;8.35;;;3.03;;
40971;SDS011;26701;47.408;19.174;2023-02-05T00:33:49;7.30;;;3.40;;
40971;SDS011;26701;47.408;19.174;2023-02-05T00:36:16;6.15;;;3.42;;
40971;SDS011;26701;47.408;19.174;2023-02-05T00:38:44;5.03;;;2.53;;
40971;SDS011;26701;47.408;19.174;2023-02-05T00:41:11;7.05;;;2.40;;
40971;SDS011;26701;47.408;19.174;2023-02-05T00:43:38;6.15;;;2.38;;
40971;SDS011;26701;47.408;19.174;2023-02-05T00:46:04;4.63;;;2.50;;
40971;SDS011;26701;47.408;19.174;2023-02-05T00:48:30;3.70;;;2.25;;
40971;SDS011;26701;47.408;19.174;2023-02-05T00:50:56;4.03;;;2.35;;
40971;SDS011;26701;47.408;19.174;2023-02-05T00:53:22;6.88;;;2.83;;
40971;SDS011;26701;47.408;19.174;2023-02-05T00:55:49;6.45;;;2.45;;
40971;SDS011;26701;47.408;19.174;2023-02-05T00:58:15;9.95;;;2.60;;
40971;SDS011;26701;47.408;19.174;2023-02-05T01:00:42;5.70;;;2.58;;
40971;SDS011;26701;47.408;19.174;2023-02-05T01:03:08;4.43;;;2.10;;
40971;SDS011;26701;47.408;19.174;2023-02-05T01:05:35;5.93;;;2.40;;
40971;SDS011;26701;47.408;19.174;2023-02-05T01:08:02;5.10;;;2.28;;
40971;SDS011;26701;47.408;19.174;2023-02-05T01:10:28;8.18;;;2.67;;
40971;SDS011;26701;47.408;19.174;2023-02-05T01:12:55;4.05;;;2.30;;
40971;SDS011;26701;47.408;19.174;2023-02-05T01:15:21;5.43;;;2.17;;
40971;SDS011;26701;47.408;19.174;2023-02-05T01:17:47;7.78;;;2.97;;
40971;SDS011;26701;47.408;19.174;2023-02-05T01:20:14;6.40;;;2.47;;
40971;SDS011;26701;47.408;19.174;2023-02-05T01:22:40;7.07;;;2.67;;
40971;SDS011;26701;47.408;19.174;2023-02-05T01:25:06;5.18;;;2.67;;
40971;SDS011;26701;47.408;19.174;2023-02-05T01:27:33;6.13;;;2.35;;
40971;SDS011;26701;47.408;19.174;2023-02-05T01:29:59;5.07;;;2.45;;
40971;SDS011;26701;47.408;19.174;2023-02-05T01:32:26;7.65;;;3.33;;
40971;SDS011;26701;47.408;19.174;2023-02-05T01:34:52;4.03;;;2.33;;
40971;SDS011;26701;47.408;19.174;2023-02-05T01:37:18;5.25;;;2.53;;
40971;SDS011;26701;47.408;19.174;2023-02-05T01:39:44;6.18;;;2.50;;
40971;SDS011;26701;47.408;19.174;2023-02-05T01:42:26;7.55;;;2.60;;
40971;SDS011;26701;47.408;19.174;2023-02-05T01:50:24;5.40;;;2.22;;
40971;SDS011;26701;47.408;19.174;2023-02-05T01:52:51;4.57;;;2.40;;
40971;SDS011;26701;47.408;19.174;2023-02-05T01:55:19;6.60;;;2.80;;
40971;SDS011;26701;47.408;19.174;2023-02-05T01:57:45;5.78;;;2.72;;
40971;SDS011;26701;47.408;19.174;2023-02-05T02:00:13;4.35;;;2.25;;
40971;SDS011;26701;47.408;19.174;2023-02-05T02:02:42;5.05;;;2.60;;
40971;SDS011;26701;47.408;19.174;2023-02-05T02:05:10;2.60;;;1.85;;
40971;SDS011;26701;47.408;19.174;2023-02-05T02:07:38;3.63;;;1.90;;
40971;SDS011;26701;47.408;19.174;2023-02-05T02:10:04;3.53;;;2.40;;
40971;SDS011;26701;47.408;19.174;2023-02-05T02:12:32;6.65;;;3.10;;
40971;SDS011;26701;47.408;19.174;2023-02-05T02:15:04;5.07;;;2.25;;
40971;SDS011;26701;47.408;19.174;2023-02-05T02:17:36;4.90;;;2.40;;
40971;SDS011;26701;47.408;19.174;2023-02-05T02:20:27;6.35;;;2.97;;
40971;SDS011;26701;47.408;19.174;2023-02-05T02:23:23;5.03;;;2.22;;
40971;SDS011;26701;47.408;19.174;2023-02-05T02:29:03;6.72;;;2.70;;
40971;SDS011;26701;47.408;19.174;2023-02-05T02:31:30;7.30;;;2.97;;
40971;SDS011;26701;47.408;19.174;2023-02-05T02:34:05;6.72;;;2.90;;
40971;SDS011;26701;47.408;19.174;2023-02-05T02:37:03;6.90;;;2.92;;
40971;SDS011;26701;47.408;19.174;2023-02-05T02:39:39;5.85;;;2.70;;
40971;SDS011;26701;47.408;19.174;2023-02-05T02:42:23;6.85;;;3.22;;
40971;SDS011;26701;47.408;19.174;2023-02-05T02:45:00;8.32;;;3.90;;
40971;SDS011;26701;47.408;19.174;2023-02-05T02:47:34;8.13;;;3.67;;
40971;SDS011;26701;47.408;19.174;2023-02-05T02:50:21;8.27;;;4.05;;
40971;SDS011;26701;47.408;19.174;2023-02-05T02:52:50;9.43;;;4.68;;
40971;SDS011;26701;47.408;19.174;2023-02-05T02:55:18;5.70;;;2.47;;
40971;SDS011;26701;47.408;19.174;2023-02-05T02:57:47;8.02;;;2.70;;
40971;SDS011;26701;47.408;19.174;2023-02-05T03:00:17;6.97;;;2.67;;
40971;SDS011;26701;47.408;19.174;2023-02-05T03:02:47;8.77;;;3.00;;
40971;SDS011;26701;47.408;19.174;2023-02-05T03:05:18;7.57;;;2.90;;
40971;SDS011;26701;47.408;19.174;2023-02-05T03:07:57;4.75;;;2.85;;
40971;SDS011;26701;47.408;19.174;2023-02-05T03:13:36;7.18;;;3.55;;
40971;SDS011;26701;47.408;19.174;2023-02-05T03:16:04;7.45;;;3.08;;
40971;SDS011;26701;47.408;19.174;2023-02-05T03:18:30;5.95;;;2.53;;
40971;SDS011;26701;47.408;19.174;2023-02-05T03:20:59;11.73;;;4.57;;
40971;SDS011;26701;47.408;19.174;2023-02-05T03:23:29;6.60;;;2.47;;
40971;SDS011;26701;47.408;19.174;2023-02-05T03:25:56;5.38;;;2.47;;
40971;SDS011;26701;47.408;19.174;2023-02-05T03:28:31;5.00;;;2.20;;
40971;SDS011;26701;47.408;19.174;2023-02-05T03:52:54;6.53;;;2.92;;
40971;SDS011;26701;47.408;19.174;2023-02-05T03:55:27;5.57;;;2.85;;
40971;SDS011;26701;47.408;19.174;2023-02-05T04:00:23;6.43;;;2.60;;
40971;SDS011;26701;47.408;19.174;2023-02-05T04:02:51;6.47;;;2.90;;
40971;SDS011;26701;47.408;19.174;2023-02-05T04:05:20;6.38;;;2.13;;
40971;SDS011;26701;47.408;19.174;2023-02-05T04:07:49;8.68;;;2.38;;
40971;SDS011;26701;47.408;19.174;2023-02-05T04:10:17;6.35;;;2.35;;
40971;SDS011;26701;47.408;19.174;2023-02-05T04:12:45;4.07;;;2.42;;
40971;SDS011;26701;47.408;19.174;2023-02-05T04:15:11;6.00;;;2.88;;
40971;SDS011;26701;47.408;19.174;2023-02-05T04:17:42;4.38;;;2.58;;
40971;SDS011;26701;47.408;19.174;2023-02-05T04:20:08;5.93;;;2.83;;
40971;SDS011;26701;47.408;19.174;2023-02-05T04:22:34;4.95;;;2.22;;
40971;SDS011;26701;47.408;19.174;2023-02-05T04:25:00;5.90;;;2.40;;
40971;SDS011;26701;47.408;19.174;2023-02-05T04:27:26;6.97;;;2.83;;
40971;SDS011;26701;47.408;19.174;2023-02-05T04:29:53;8.07;;;3.13;;
40971;SDS011;26701;47.408;19.174;2023-02-05T04:32:19;4.45;;;2.17;;
40971;SDS011;26701;47.408;19.174;2023-02-05T04:34:45;6.63;;;2.90;;
40971;SDS011;26701;47.408;19.174;2023-02-05T04:37:11;4.18;;;2.28;;
40971;SDS011;26701;47.408;19.174;2023-02-05T04:39:38;6.78;;;2.97;;
40971;SDS011;26701;47.408;19.174;2023-02-05T04:42:04;5.05;;;2.35;;
40971;SDS011;26701;47.408;19.174;2023-02-05T04:44:30;6.40;;;3.47;;
40971;SDS011;26701;47.408;19.174;2023-02-05T04:46:56;5.57;;;2.45;;
40971;SDS011;26701;47.408;19.174;2023-02-05T04:49:22;5.53;;;2.63;;
40971;SDS011;26701;47.408;19.174;2023-02-05T04:51:48;5.70;;;3.08;;
40971;SDS011;26701;47.408;19.174;2023-02-05T04:54:14;4.63;;;2.30;;
40971;SDS011;26701;47.408;19.174;2023-02-05T04:56:40;6.75;;;2.33;;
40971;SDS011;26701;47.408;19.174;2023-02-05T04:59:06;9.32;;;3.33;;
40971;SDS011;26701;47.408;19.174;2023-02-05T05:01:32;8.10;;;2.97;;
40971;SDS011;26701;47.408;19.174;2023-02-05T05:03:58;3.97;;;2.13;;
40971;SDS011;26701;47.408;19.174;2023-02-05T05:06:24;6.38;;;3.25;;
40971;SDS011;26701;47.408;19.174;2023-02-05T05:08:50;6.20;;;2.95;;
40971;SDS011;26701;47.408;19.174;2023-02-05T05:11:17;6.22;;;3.83;;
40971;SDS011;26701;47.408;19.174;2023-02-05T05:13:43;4.35;;;2.63;;
40971;SDS011;26701;47.408;19.174;2023-02-05T05:16:10;4.18;;;2.40;;
40971;SDS011;26701;47.408;19.174;2023-02-05T05:18:37;8.93;;;2.78;;
40971;SDS011;26701;47.408;19.174;2023-02-05T05:21:04;6.60;;;2.30;;
40971;SDS011;26701;47.408;19.174;2023-02-05T05:23:31;4.97;;;2.60;;
40971;SDS011;26701;47.408;19.174;2023-02-05T05:25:57;4.18;;;2.67;;
40971;SDS011;26701;47.408;19.174;2023-02-05T05:28:23;6.43;;;2.97;;
40971;SDS011;26701;47.408;19.174;2023-02-05T05:30:49;6.00;;;3.38;;
40971;SDS011;26701;47.408;19.174;2023-02-05T05:33:15;5.05;;;2.63;;
40971;SDS011;26701;47.408;19.174;2023-02-05T05:35:41;5.30;;;2.58;;
40971;SDS011;26701;47.408;19.174;2023-02-05T05:38:07;7.45;;;3.83;;
40971;SDS011;26701;47.408;19.174;2023-02-05T05:40:33;6.15;;;2.97;;
40971;SDS011;26701;47.408;19.174;2023-02-05T05:43:19;5.50;;;2.58;;
40971;SDS011;26701;47.408;19.174;2023-02-05T05:46:04;7.45;;;2.72;;
40971;SDS011;26701;47.408;19.174;2023-02-05T05:48:30;7.95;;;3.53;;
40971;SDS011;26701;47.408;19.174;2023-02-05T05:50:57;5.57;;;3.33;;
40971;SDS011;26701;47.408;19.174;2023-02-05T05:53:23;5.55;;;3.67;;
40971;SDS011;26701;47.408;19.174;2023-02-05T05:55:48;7.50;;;3.55;;
40971;SDS011;26701;47.408;19.174;2023-02-05T05:58:15;5.88;;;3.03;;
40971;SDS011;26701;47.408;19.174;2023-02-05T06:00:40;6.13;;;2.90;;
40971;SDS011;26701;47.408;19.174;2023-02-05T06:03:08;5.20;;;3.42;;
40971;SDS011;26701;47.408;19.174;2023-02-05T06:05:35;3.70;;;2.28;;
40971;SDS011;26701;47.408;19.174;2023-02-05T06:08:01;3.90;;;2.28;;
40971;SDS011;26701;47.408;19.174;2023-02-05T06:10:27;7.97;;;2.58;;
40971;SDS011;26701;47.408;19.174;2023-02-05T06:12:53;5.70;;;2.17;;
40971;SDS011;26701;47.408;19.174;2023-02-05T06:15:19;4.18;;;2.38;;
40971;SDS011;26701;47.408;19.174;2023-02-05T06:17:46;6.03;;;2.67;;
40971;SDS011;26701;47.408;19.174;2023-02-05T06:20:12;5.47;;;3.50;;
40971;SDS011;26701;47.408;19.174;2023-02-05T06:22:39;5.82;;;2.90;;
40971;SDS011;26701;47.408;19.174;2023-02-05T06:25:05;4.50;;;2.38;;
40971;SDS011;26701;47.408;19.174;2023-02-05T06:27:31;7.57;;;3.25;;
40971;SDS011;26701;47.408;19.174;2023-02-05T06:29:57;4.60;;;2.53;;
40971;SDS011;26701;47.408;19.174;2023-02-05T06:32:24;6.28;;;2.63;;
40971;SDS011;26701;47.408;19.174;2023-02-05T06:34:50;4.43;;;1.95;;
40971;SDS011;26701;47.408;19.174;2023-02-05T06:37:17;5.82;;;2.53;;
40971;SDS011;26701;47.408;19.174;2023-02-05T06:39:42;3.72;;;2.03;;
40971;SDS011;26701;47.408;19.174;2023-02-05T06:42:09;6.20;;;2.75;;
40971;SDS011;26701;47.408;19.174;2023-02-05T06:44:35;5.22;;;2.75;;
40971;SDS011;26701;47.408;19.174;2023-02-05T06:47:01;4.35;;;2.22;;
40971;SDS011;26701;47.408;19.174;2023-02-05T06:49:27;5.60;;;2.28;;
40971;SDS011;26701;47.408;19.174;2023-02-05T06:51:52;5.80;;;2.40;;
40971;SDS011;26701;47.408;19.174;2023-02-05T06:54:19;4.43;;;1.92;;
40971;SDS011;26701;47.408;19.174;2023-02-05T06:56:45;6.85;;;2.50;;
40971;SDS011;26701;47.408;19.174;2023-02-05T06:59:12;6.28;;;2.58;;
40971;SDS011;26701;47.408;19.174;2023-02-05T07:01:38;4.30;;;2.25;;
40971;SDS011;26701;47.408;19.174;2023-02-05T07:04:03;6.38;;;3.08;;
40971;SDS011;26701;47.408;19.174;2023-02-05T07:06:30;5.93;;;2.63;;
40971;SDS011;26701;47.408;19.174;2023-02-05T07:08:56;6.93;;;2.55;;
40971;SDS011;26701;47.408;19.174;2023-02-05T07:11:24;7.97;;;2.97;;
40971;SDS011;26701;47.408;19.174;2023-02-05T07:13:50;5.70;;;2.85;;
40971;SDS011;26701;47.408;19.174;2023-02-05T07:16:16;4.35;;;2.10;;
40971;SDS011;26701;47.408;19.174;2023-02-05T07:18:42;5.60;;;2.42;;
40971;SDS011;26701;47.408;19.174;2023-02-05T07:21:09;5.78;;;2.35;;
40971;SDS011;26701;47.408;19.174;2023-02-05T07:23:38;7.85;;;2.90;;
40971;SDS011;26701;47.408;19.174;2023-02-05T07:26:07;6.50;;;3.00;;
40971;SDS011;26701;47.408;19.174;2023-02-05T07:28:33;4.18;;;2.28;;
40971;SDS011;26701;47.408;19.174;2023-02-05T07:31:03;5.25;;;2.15;;
40971;SDS011;26701;47.408;19.174;2023-02-05T07:33:30;5.28;;;2.78;;
40971;SDS011;26701;47.408;19.174;2023-02-05T07:35:56;4.70;;;2.35;;
40971;SDS011;26701;47.408;19.174;2023-02-05T07:38:22;8.57;;;2.97;;
40971;SDS011;26701;47.408;19.174;2023-02-05T07:40:51;5.25;;;2.90;;
40971;SDS011;26701;47.408;19.174;2023-02-05T07:43:17;5.68;;;2.80;;
40971;SDS011;26701;47.408;19.174;2023-02-05T07:45:43;4.20;;;2.13;;
40971;SDS011;26701;47.408;19.174;2023-02-05T07:48:09;6.28;;;3.20;;
40971;SDS011;26701;47.408;19.174;2023-02-05T07:50:35;5.88;;;2.60;;
40971;SDS011;26701;47.408;19.174;2023-02-05T07:53:01;8.23;;;3.40;;
40971;SDS011;26701;47.408;19.174;2023-02-05T07:55:27;6.75;;;3.53;;
40971;SDS011;26701;47.408;19.174;2023-02-05T07:57:53;7.50;;;3.50;;
40971;SDS011;26701;47.408;19.174;2023-02-05T08:00:19;8.82;;;3.28;;
40971;SDS011;26701;47.408;19.174;2023-02-05T08:02:45;8.52;;;3.50;;
40971;SDS011;26701;47.408;19.174;2023-02-05T08:05:11;10.20;;;5.03;;
40971;SDS011;26701;47.408;19.174;2023-02-05T08:07:37;8.63;;;4.38;;
40971;SDS011;26701;47.408;19.174;2023-02-05T08:10:03;17.15;;;5.07;;
40971;SDS011;26701;47.408;19.174;2023-02-05T08:12:29;13.77;;;6.07;;
40971;SDS011;26701;47.408;19.174;2023-02-05T08:14:55;13.35;;;5.57;;
40971;SDS011;26701;47.408;19.174;2023-02-05T08:17:21;15.02;;;6.97;;
40971;SDS011;26701;47.408;19.174;2023-02-05T08:19:47;10.50;;;5.07;;
40971;SDS011;26701;47.408;19.174;2023-02-05T08:22:14;9.10;;;5.97;;
40971;SDS011;26701;47.408;19.174;2023-02-05T08:24:40;20.80;;;9.32;;
40971;SDS011;26701;47.408;19.174;2023-02-05T08:27:06;23.05;;;10.60;;
40971;SDS011;26701;47.408;19.174;2023-02-05T08:29:32;26.17;;;12.23;;
40971;SDS011;26701;47.408;19.174;2023-02-05T08:31:58;12.77;;;6.72;;
40971;SDS011;26701;47.408;19.174;2023-02-05T08:34:24;24.33;;;12.88;;
40971;SDS011;26701;47.408;19.174;2023-02-05T08:36:50;18.83;;;10.40;;
40971;SDS011;26701;47.408;19.174;2023-02-05T08:39:16;17.05;;;8.38;;
40971;SDS011;26701;47.408;19.174;2023-02-05T08:41:42;23.23;;;9.63;;
40971;SDS011;26701;47.408;19.174;2023-02-05T08:44:08;17.58;;;7.57;;
40971;SDS011;26701;47.408;19.174;2023-02-05T08:46:35;8.38;;;5.10;;
40971;SDS011;26701;47.408;19.174;2023-02-05T08:49:03;10.40;;;5.10;;
40971;SDS011;26701;47.408;19.174;2023-02-05T08:51:29;13.20;;;6.90;;
40971;SDS011;26701;47.408;19.174;2023-02-05T08:53:57;12.90;;;6.78;;
40971;SDS011;26701;47.408;19.174;2023-02-05T08:56:23;10.23;;;4.25;;
40971;SDS011;26701;47.408;19.174;2023-02-05T08:58:50;8.57;;;4.63;;
40971;SDS011;26701;47.408;19.174;2023-02-05T09:01:16;12.27;;;5.82;;
40971;SDS011;26701;47.408;19.174;2023-02-05T09:03:43;10.95;;;4.72;;
40971;SDS011;26701;47.408;19.174;2023-02-05T09:06:11;11.40;;;3.92;;
40971;SDS011;26701;47.408;19.174;2023-02-05T09:08:37;7.65;;;5.07;;
40971;SDS011;26701;47.408;19.174;2023-02-05T09:11:04;8.70;;;4.57;;
40971;SDS011;26701;47.408;19.174;2023-02-05T09:13:31;10.57;;;5.05;;
40971;SDS011;26701;47.408;19.174;2023-02-05T09:15:57;12.32;;;5.35;;
40971;SDS011;26701;47.408;19.174;2023-02-05T09:18:23;9.27;;;4.13;;
40971;SDS011;26701;47.408;19.174;2023-02-05T09:20:49;8.90;;;5.00;;
40971;SDS011;26701;47.408;19.174;2023-02-05T09:23:16;8.40;;;5.10;;
40971;SDS011;26701;47.408;19.174;2023-02-05T09:25:43;8.55;;;5.05;;
40971;SDS011;26701;47.408;19.174;2023-02-05T09:28:09;14.05;;;6.43;;
40971;SDS011;26701;47.408;19.174;2023-02-05T09:30:37;7.68;;;4.25;;
40971;SDS011;26701;47.408;19.174;2023-02-05T09:33:04;9.68;;;4.90;;
40971;SDS011;26701;47.408;19.174;2023-02-05T09:35:31;9.18;;;5.35;;
40971;SDS011;26701;47.408;19.174;2023-02-05T09:37:57;10.35;;;5.85;;
40971;SDS011;26701;47.408;19.174;2023-02-05T09:40:26;9.70;;;4.68;;
40971;SDS011;26701;47.408;19.174;2023-02-05T09:45:34;7.35;;;4.05;;
40971;SDS011;26701;47.408;19.174;2023-02-05T09:51:00;11.02;;;4.40;;
40971;SDS011;26701;47.408;19.174;2023-02-05T09:53:27;10.60;;;6.47;;
40971;SDS011;26701;47.408;19.174;2023-02-05T09:56:03;5.63;;;3.05;;
40971;SDS011;26701;47.408;19.174;2023-02-05T09:58:32;7.72;;;5.43;;
40971;SDS011;26701;47.408;19.174;2023-02-05T10:01:11;8.98;;;3.78;;
40971;SDS011;26701;47.408;19.174;2023-02-05T10:04:00;11.20;;;3.70;;
40971;SDS011;26701;47.408;19.174;2023-02-05T10:06:36;4.35;;;2.35;;
40971;SDS011;26701;47.408;19.174;2023-02-05T10:12:12;6.55;;;2.80;;
40971;SDS011;26701;47.408;19.174;2023-02-05T10:20:33;10.25;;;5.45;;
40971;SDS011;26701;47.408;19.174;2023-02-05T10:23:12;4.28;;;2.40;;
40971;SDS011;26701;47.408;19.174;2023-02-05T10:37:02;6.35;;;2.80;;
40971;SDS011;26701;47.408;19.174;2023-02-05T10:39:30;6.05;;;3.28;;
40971;SDS011;26701;47.408;19.174;2023-02-05T10:45:33;7.35;;;3.97;;
40971;SDS011;26701;47.408;19.174;2023-02-05T10:50:22;9.95;;;4.55;;
40971;SDS011;26701;47.408;19.174;2023-02-05T10:52:55;3.67;;;2.00;;
40971;SDS011;26701;47.408;19.174;2023-02-05T10:55:20;5.65;;;3.38;;
40971;SDS011;26701;47.408;19.174;2023-02-05T10:57:47;3.88;;;2.63;;
40971;SDS011;26701;47.408;19.174;2023-02-05T11:02:39;6.25;;;3.05;;
40971;SDS011;26701;47.408;19.174;2023-02-05T11:05:41;6.97;;;3.25;;
40971;SDS011;26701;47.408;19.174;2023-02-05T11:08:01;6.38;;;2.90;;
40971;SDS011;26701;47.408;19.174;2023-02-05T11:10:28;6.20;;;3.47;;
40971;SDS011;26701;47.408;19.174;2023-02-05T11:12:59;5.78;;;3.00;;
40971;SDS011;26701;47.408;19.174;2023-02-05T11:15:49;9.00;;;3.55;;
40971;SDS011;26701;47.408;19.174;2023-02-05T11:18:27;4.28;;;2.83;;
40971;SDS011;26701;47.408;19.174;2023-02-05T11:21:00;5.70;;;3.55;;
40971;SDS011;26701;47.408;19.174;2023-02-05T11:23:29;7.15;;;4.40;;
40971;SDS011;26701;47.408;19.174;2023-02-05T11:25:57;5.53;;;2.70;;
40971;SDS011;26701;47.408;19.174;2023-02-05T11:30:51;7.35;;;2.92;;
40971;SDS011;26701;47.408;19.174;2023-02-05T11:33:22;8.85;;;5.20;;
40971;SDS011;26701;47.408;19.174;2023-02-05T11:40:53;8.68;;;4.18;;
40971;SDS011;26701;47.408;19.174;2023-02-05T11:43:31;8.68;;;3.35;;
40971;SDS011;26701;47.408;19.174;2023-02-05T11:45:59;7.78;;;3.42;;
40971;SDS011;26701;47.408;19.174;2023-02-05T11:50:57;4.68;;;3.00;;
40971;SDS011;26701;47.408;19.174;2023-02-05T11:53:24;8.75;;;6.05;;
40971;SDS011;26701;47.408;19.174;2023-02-05T11:55:52;6.10;;;3.95;;
40971;SDS011;26701;47.408;19.174;2023-02-05T11:58:22;5.13;;;3.25;;
40971;SDS011;26701;47.408;19.174;2023-02-05T12:00:55;5.10;;;2.92;;
40971;SDS011;26701;47.408;19.174;2023-02-05T12:03:30;8.45;;;5.38;;
40971;SDS011;26701;47.408;19.174;2023-02-05T12:16:07;11.60;;;8.05;;
40971;SDS011;26701;47.408;19.174;2023-02-05T12:26:41;7.07;;;5.22;;
40971;SDS011;26701;47.408;19.174;2023-02-05T12:37:06;5.60;;;3.30;;
40971;SDS011;26701;47.408;19.174;2023-02-05T12:50:47;5.28;;;3.15;;
40971;SDS011;26701;47.408;19.174;2023-02-05T12:59:02;6.45;;;3.22;;
40971;SDS011;26701;47.408;19.174;2023-02-05T13:01:45;8.13;;;4.28;;
40971;SDS011;26701;47.408;19.174;2023-02-05T13:04:26;6.07;;;3.15;;
40971;SDS011;26701;47.408;19.174;2023-02-05T13:07:20;4.25;;;3.03;;
40971;SDS011;26701;47.408;19.174;2023-02-05T13:09:52;9.10;;;4.18;;
40971;SDS011;26701;47.408;19.174;2023-02-05T13:12:40;6.97;;;4.05;;
40971;SDS011;26701;47.408;19.174;2023-02-05T13:15:57;8.20;;;3.33;;
40971;SDS011;26701;47.408;19.174;2023-02-05T13:18:26;9.07;;;4.32;;
40971;SDS011;26701;47.408;19.174;2023-02-05T13:23:48;6.47;;;3.20;;
40971;SDS011;26701;47.408;19.174;2023-02-05T13:26:38;4.68;;;2.60;;
40971;SDS011;26701;47.408;19.174;2023-02-05T13:29:27;5.63;;;3.10;;
40971;SDS011;26701;47.408;19.174;2023-02-05T13:31:59;8.35;;;4.30;;
40971;SDS011;26701;47.408;19.174;2023-02-05T13:34:28;4.25;;;3.75;;
40971;SDS011;26701;47.408;19.174;2023-02-05T13:42:22;5.47;;;4.95;;
40971;SDS011;26701;47.408;19.174;2023-02-05T13:53:58;9.63;;;8.60;;
40971;SDS011;26701;47.408;19.174;2023-02-05T13:59:17;6.22;;;5.63;;
40971;SDS011;26701;47.408;19.174;2023-02-05T14:01:59;35.00;;;20.35;;
40971;SDS011;26701;47.408;19.174;2023-02-05T14:04:31;13.43;;;11.90;;
40971;SDS011;26701;47.408;19.174;2023-02-05T14:07:05;8.10;;;5.60;;
40971;SDS011;26701;47.408;19.174;2023-02-05T14:12:10;8.35;;;6.60;;
40971;SDS011;26701;47.408;19.174;2023-02-05T14:14:45;7.43;;;4.10;;
40971;SDS011;26701;47.408;19.174;2023-02-05T14:20:02;5.50;;;2.95;;
40971;SDS011;26701;47.408;19.174;2023-02-05T14:22:40;4.65;;;2.63;;
40971;SDS011;26701;47.408;19.174;2023-02-05T14:30:33;7.05;;;4.97;;
40971;SDS011;26701;47.408;19.174;2023-02-05T14:35:36;5.60;;;3.55;;
40971;SDS011;26701;47.408;19.174;2023-02-05T14:41:11;6.78;;;4.45;;
40971;SDS011;26701;47.408;19.174;2023-02-05T14:43:39;6.30;;;4.15;;
40971;SDS011;26701;47.408;19.174;2023-02-05T14:46:18;7.32;;;4.70;;
40971;SDS011;26701;47.408;19.174;2023-02-05T14:49:04;8.65;;;5.07;;
40971;SDS011;26701;47.408;19.174;2023-02-05T14:51:48;5.70;;;3.33;;
40971;SDS011;26701;47.408;19.174;2023-02-05T14:54:21;4.85;;;3.60;;
40971;SDS011;26701;47.408;19.174;2023-02-05T14:56:50;6.00;;;3.45;;
40971;SDS011;26701;47.408;19.174;2023-02-05T15:01:56;9.18;;;4.32;;
40971;SDS011;26701;47.408;19.174;2023-02-05T15:07:19;7.30;;;4.55;;
40971;SDS011;26701;47.408;19.174;2023-02-05T15:10:00;6.40;;;3.85;;
40971;SDS011;26701;47.408;19.174;2023-02-05T15:17:52;23.30;;;14.18;;
40971;SDS011;26701;47.408;19.174;2023-02-05T15:20:24;10.35;;;5.75;;
40971;SDS011;26701;47.408;19.174;2023-02-05T15:22:53;8.75;;;5.40;;
40971;SDS011;26701;47.408;19.174;2023-02-05T15:27:58;10.27;;;5.57;;
40971;SDS011;26701;47.408;19.174;2023-02-05T15:30:41;8.75;;;5.90;;
40971;SDS011;26701;47.408;19.174;2023-02-05T15:33:16;9.55;;;4.85;;
40971;SDS011;26701;47.408;19.174;2023-02-05T15:35:49;12.55;;;5.47;;
40971;SDS011;26701;47.408;19.174;2023-02-05T15:38:38;9.05;;;6.47;;
40971;SDS011;26701;47.408;19.174;2023-02-05T15:41:10;12.15;;;5.70;;
40971;SDS011;26701;47.408;19.174;2023-02-05T15:43:39;8.98;;;6.00;;
40971;SDS011;26701;47.408;19.174;2023-02-05T15:46:06;10.70;;;5.68;;
40971;SDS011;26701;47.408;19.174;2023-02-05T15:48:33;13.77;;;6.53;;
40971;SDS011;26701;47.408;19.174;2023-02-05T15:51:01;9.25;;;5.07;;
40971;SDS011;26701;47.408;19.174;2023-02-05T15:53:48;11.15;;;5.07;;
40971;SDS011;26701;47.408;19.174;2023-02-05T15:58:51;10.02;;;5.40;;
40971;SDS011;26701;47.408;19.174;2023-02-05T16:02:01;9.85;;;5.18;;
40971;SDS011;26701;47.408;19.174;2023-02-05T16:04:30;8.52;;;4.72;;
40971;SDS011;26701;47.408;19.174;2023-02-05T16:06:58;13.05;;;7.88;;
40971;SDS011;26701;47.408;19.174;2023-02-05T16:09:29;37.95;;;15.23;;
40971;SDS011;26701;47.408;19.174;2023-02-05T16:12:20;58.42;;;23.05;;
40971;SDS011;26701;47.408;19.174;2023-02-05T16:14:45;88.50;;;36.28;;
40971;SDS011;26701;47.408;19.174;2023-02-05T16:18:05;84.25;;;30.38;;
40971;SDS011;26701;47.408;19.174;2023-02-05T16:23:04;68.22;;;26.98;;
40971;SDS011;26701;47.408;19.174;2023-02-05T16:28:12;88.20;;;34.88;;
40971;SDS011;26701;47.408;19.174;2023-02-05T16:30:58;83.53;;;34.63;;
40971;SDS011;26701;47.408;19.174;2023-02-05T16:33:35;72.72;;;29.80;;
40971;SDS011;26701;47.408;19.174;2023-02-05T16:36:04;75.00;;;32.08;;
40971;SDS011;26701;47.408;19.174;2023-02-05T16:38:38;86.07;;;36.10;;
40971;SDS011;26701;47.408;19.174;2023-02-05T16:41:26;98.15;;;40.17;;
40971;SDS011;26701;47.408;19.174;2023-02-05T16:43:52;86.15;;;39.95;;
40971;SDS011;26701;47.408;19.174;2023-02-05T16:46:20;77.60;;;35.55;;
40971;SDS011;26701;47.408;19.174;2023-02-05T16:48:51;70.95;;;32.75;;
40971;SDS011;26701;47.408;19.174;2023-02-05T16:53:55;52.58;;;24.75;;
40971;SDS011;26701;47.408;19.174;2023-02-05T16:56:25;50.13;;;21.98;;
40971;SDS011;26701;47.408;19.174;2023-02-05T16:58:57;49.78;;;24.25;;
40971;SDS011;26701;47.408;19.174;2023-02-05T17:01:27;56.35;;;26.73;;
40971;SDS011;26701;47.408;19.174;2023-02-05T17:04:07;96.43;;;37.65;;
40971;SDS011;26701;47.408;19.174;2023-02-05T17:06:51;68.00;;;28.75;;
40971;SDS011;26701;47.408;19.174;2023-02-05T17:09:37;57.47;;;27.38;;
40971;SDS011;26701;47.408;19.174;2023-02-05T17:14:58;57.70;;;23.77;;
40971;SDS011;26701;47.408;19.174;2023-02-05T17:17:27;49.33;;;24.73;;
40971;SDS011;26701;47.408;19.174;2023-02-05T17:20:27;56.15;;;24.80;;
40971;SDS011;26701;47.408;19.174;2023-02-05T17:23:09;49.42;;;20.52;;
40971;SDS011;26701;47.408;19.174;2023-02-05T17:28:20;22.95;;;10.30;;
40971;SDS011;26701;47.408;19.174;2023-02-05T17:30:50;17.95;;;8.13;;
40971;SDS011;26701;47.408;19.174;2023-02-05T17:33:19;16.63;;;7.10;;
40971;SDS011;26701;47.408;19.174;2023-02-05T17:35:46;18.85;;;7.72;;
40971;SDS011;26701;47.408;19.174;2023-02-05T17:38:12;13.00;;;7.10;;
40971;SDS011;26701;47.408;19.174;2023-02-05T17:40:39;12.00;;;6.68;;
40971;SDS011;26701;47.408;19.174;2023-02-05T17:43:05;12.82;;;6.95;;
40971;SDS011;26701;47.408;19.174;2023-02-05T17:45:33;11.93;;;6.20;;
40971;SDS011;26701;47.408;19.174;2023-02-05T17:48:01;14.25;;;5.65;;
40971;SDS011;26701;47.408;19.174;2023-02-05T17:50:27;17.17;;;7.20;;
40971;SDS011;26701;47.408;19.174;2023-02-05T17:52:53;17.52;;;7.60;;
40971;SDS011;26701;47.408;19.174;2023-02-05T17:55:20;21.90;;;8.32;;
40971;SDS011;26701;47.408;19.174;2023-02-05T17:57:46;14.82;;;8.45;;